Time;durP1;ratioP1;P1;durP2;ratioP2;P2;SDS_P1;SDS_P2;PMS_P1;PMS_P2;Temp;Humidity;BMP_temperature;BMP_pressure;BME280_temperature;BME280_humidity;BME280_pressure;Samples;Min_cycle;Max_cycle;Signal;HPM_P1;HPM_P2
2023/10/24 00:01:33;;;;;;;8.38;2.85;;;10.20;99.90;;;;;;5000588;28;20050;-66
2023/10/24 00:03:58;;;;;;;5.85;3.10;;;10.20;99.90;;;;;;5011803;28;20689;-67
2023/10/24 00:06:24;;;;;;;3.33;2.38;;;10.20;99.90;;;;;;5008259;28;20087;-67
2023/10/24 00:08:50;;;;;;;4.70;2.55;;;10.20;99.90;;;;;;5021617;28;20099;-67
2023/10/24 00:11:15;;;;;;;4.85;2.45;;;10.20;99.90;;;;;;5005178;28;20096;-68
2023/10/24 00:13:41;;;;;;;3.53;2.10;;;10.20;99.90;;;;;;4999414;28;20101;-67
2023/10/24 00:16:07;;;;;;;3.45;2.90;;;10.20;99.90;;;;;;5013646;28;20406;-66
2023/10/24 00:18:36;;;;;;;4.75;1.98;;;10.20;99.90;;;;;;5017912;28;20042;-67
2023/10/24 00:21:02;;;;;;;3.28;2.00;;;10.10;99.90;;;;;;4997713;28;20072;-67
2023/10/24 00:23:29;;;;;;;5.28;2.90;;;10.20;99.90;;;;;;5011587;28;20117;-67
2023/10/24 00:25:54;;;;;;;4.55;2.45;;;10.10;99.90;;;;;;5005591;28;20063;-65
2023/10/24 00:28:20;;;;;;;3.53;2.15;;;10.10;99.90;;;;;;5020527;28;20037;-66
2023/10/24 00:30:46;;;;;;;6.93;2.72;;;10.10;99.90;;;;;;5015462;28;20478;-68
2023/10/24 00:33:12;;;;;;;4.65;2.53;;;10.20;99.90;;;;;;4994755;28;20057;-67
2023/10/24 00:35:37;;;;;;;4.47;2.40;;;10.20;99.90;;;;;;4973966;28;20045;-68
2023/10/24 00:38:03;;;;;;;3.63;1.90;;;10.10;99.90;;;;;;5001916;28;20544;-70
2023/10/24 00:40:31;;;;;;;4.57;3.03;;;10.20;99.90;;;;;;5005361;28;20074;-70
2023/10/24 00:43:03;;;;;;;7.10;3.03;;;10.20;99.90;;;;;;4993543;28;20041;-67
2023/10/24 00:45:28;;;;;;;5.00;1.95;;;10.20;99.90;;;;;;5000611;28;20079;-68
2023/10/24 00:47:54;;;;;;;4.15;2.15;;;10.20;99.90;;;;;;5015472;28;20507;-68
2023/10/24 00:50:20;;;;;;;2.90;2.08;;;10.20;99.90;;;;;;5013328;28;20061;-69
2023/10/24 00:52:46;;;;;;;4.43;2.35;;;10.20;99.90;;;;;;5009865;28;20041;-68
2023/10/24 00:55:14;;;;;;;4.18;2.25;;;10.20;99.90;;;;;;5022789;28;20124;-67
2023/10/24 00:57:40;;;;;;;3.60;1.95;;;10.20;99.90;;;;;;5001791;28;20046;-68
2023/10/24 01:00:07;;;;;;;3.10;2.13;;;10.20;99.90;;;;;;5020940;28;20068;-69
2023/10/24 01:02:33;;;;;;;3.97;2.20;;;10.20;99.90;;;;;;4993979;28;20038;-67
2023/10/24 01:05:00;;;;;;;3.58;2.22;;;10.20;99.90;;;;;;4997023;28;20050;-70
2023/10/24 01:07:26;;;;;;;2.45;1.40;;;10.20;99.90;;;;;;5002351;28;20126;-67
2023/10/24 01:09:51;;;;;;;3.03;2.00;;;10.20;99.90;;;;;;5003552;28;20120;-68
2023/10/24 01:12:17;;;;;;;4.20;2.33;;;10.20;99.90;;;;;;5018621;28;20037;-68
2023/10/24 01:14:43;;;;;;;3.65;2.55;;;10.20;99.90;;;;;;4990523;28;20045;-69
2023/10/24 01:17:13;;;;;;;5.68;1.73;;;10.20;99.90;;;;;;5002567;28;20421;-68
2023/10/24 01:19:39;;;;;;;2.80;1.90;;;10.20;99.90;;;;;;5015684;28;20046;-68
2023/10/24 01:22:05;;;;;;;2.40;1.52;;;10.30;99.90;;;;;;4993678;28;20041;-67
2023/10/24 01:24:31;;;;;;;4.63;2.10;;;10.30;99.90;;;;;;5020674;28;20053;-68
2023/10/24 01:26:57;;;;;;;3.30;1.45;;;10.30;99.90;;;;;;4971152;28;20093;-68
2023/10/24 01:29:23;;;;;;;4.88;2.05;;;10.30;99.90;;;;;;5011668;28;20097;-69
2023/10/24 01:31:49;;;;;;;4.32;2.90;;;10.30;99.90;;;;;;5012244;28;20038;-68
2023/10/24 01:34:15;;;;;;;3.55;1.70;;;10.30;99.90;;;;;;5016080;28;20068;-69
2023/10/24 01:36:41;;;;;;;4.10;2.67;;;10.30;99.90;;;;;;5021421;28;20092;-68
2023/10/24 01:39:09;;;;;;;4.53;2.53;;;10.30;99.90;;;;;;4994514;28;20045;-69
2023/10/24 01:41:35;;;;;;;2.63;2.10;;;10.40;99.90;;;;;;5011839;28;20041;-69
2023/10/24 01:44:01;;;;;;;3.28;2.17;;;10.40;99.90;;;;;;4999651;28;20408;-68
2023/10/24 01:46:26;;;;;;;2.83;1.77;;;10.40;99.90;;;;;;5000741;28;20098;-69
2023/10/24 01:48:52;;;;;;;2.92;1.77;;;10.40;99.90;;;;;;5003290;28;20048;-68
2023/10/24 01:51:19;;;;;;;2.20;1.42;;;10.40;99.90;;;;;;5012087;28;20041;-68
2023/10/24 01:53:45;;;;;;;3.25;1.80;;;10.40;99.90;;;;;;5000058;28;20087;-68
2023/10/24 01:56:11;;;;;;;3.72;1.85;;;10.50;99.90;;;;;;5014898;28;20069;-69
2023/10/24 01:58:37;;;;;;;2.75;1.77;;;10.50;99.90;;;;;;5001932;28;20070;-68
2023/10/24 02:01:03;;;;;;;3.75;1.90;;;10.50;99.90;;;;;;4995756;28;20089;-69
2023/10/24 02:03:28;;;;;;;2.10;1.27;;;10.50;99.90;;;;;;4998488;28;20050;-68
2023/10/24 02:05:54;;;;;;;3.17;1.80;;;10.50;99.90;;;;;;5002303;28;20053;-68
2023/10/24 02:08:20;;;;;;;3.42;2.10;;;10.50;99.90;;;;;;5011782;28;20041;-69
2023/10/24 02:10:45;;;;;;;3.05;1.77;;;10.50;99.90;;;;;;4994847;28;20048;-69
2023/10/24 02:13:11;;;;;;;2.72;1.50;;;10.50;99.90;;;;;;5004699;28;20464;-69
2023/10/24 02:15:39;;;;;;;8.57;1.90;;;10.60;99.90;;;;;;4986194;28;20038;-69
2023/10/24 02:18:05;;;;;;;2.08;1.50;;;10.60;99.90;;;;;;5012028;28;20140;-69
2023/10/24 02:20:31;;;;;;;2.78;1.52;;;10.60;99.90;;;;;;5000737;28;20564;-69
2023/10/24 02:22:56;;;;;;;3.47;1.65;;;10.60;99.90;;;;;;5016427;28;20710;-69
2023/10/24 02:25:22;;;;;;;2.20;1.70;;;10.60;99.90;;;;;;5013331;28;20108;-69
2023/10/24 02:27:48;;;;;;;2.58;1.30;;;10.60;99.90;;;;;;4996263;28;20053;-69
2023/10/24 02:30:14;;;;;;;2.85;1.50;;;10.50;99.90;;;;;;5001831;28;20486;-69
2023/10/24 02:32:40;;;;;;;2.10;1.25;;;10.60;99.90;;;;;;5001542;28;20049;-69
2023/10/24 02:35:06;;;;;;;2.58;1.65;;;10.70;99.90;;;;;;5012151;28;20053;-68
2023/10/24 02:37:32;;;;;;;2.78;1.98;;;10.60;99.90;;;;;;5010168;28;20052;-68
2023/10/24 02:39:57;;;;;;;3.88;1.98;;;10.70;99.90;;;;;;5016498;28;20038;-68
2023/10/24 02:42:23;;;;;;;2.45;1.42;;;10.70;99.90;;;;;;5016670;28;20038;-68
2023/10/24 02:44:51;;;;;;;4.32;1.60;;;10.70;99.90;;;;;;5012464;28;20143;-69
2023/10/24 02:47:17;;;;;;;4.10;1.70;;;10.70;99.90;;;;;;4980551;28;20501;-68
2023/10/24 02:49:43;;;;;;;3.65;2.88;;;10.70;99.90;;;;;;5011600;28;20045;-69
2023/10/24 02:52:08;;;;;;;3.00;1.80;;;10.70;99.90;;;;;;5020610;28;20065;-68
2023/10/24 02:54:34;;;;;;;3.20;1.80;;;10.70;99.90;;;;;;5003082;28;20079;-68
2023/10/24 02:57:00;;;;;;;2.58;1.65;;;10.70;99.90;;;;;;4996962;28;20048;-68
2023/10/24 02:59:25;;;;;;;4.60;2.05;;;10.70;99.90;;;;;;5020590;28;20034;-68
2023/10/24 03:01:51;;;;;;;3.33;1.98;;;10.70;99.90;;;;;;5005480;28;20481;-68
2023/10/24 03:04:17;;;;;;;3.28;2.25;;;10.70;99.90;;;;;;5006061;28;20259;-68
2023/10/24 03:06:42;;;;;;;3.55;1.85;;;10.70;99.90;;;;;;4995523;28;20057;-68
2023/10/24 03:09:08;;;;;;;2.47;1.75;;;10.80;99.90;;;;;;5019836;28;20363;-68
2023/10/24 03:11:34;;;;;;;3.78;2.45;;;10.70;99.90;;;;;;5021599;28;20097;-68
2023/10/24 03:13:59;;;;;;;4.13;1.98;;;10.70;99.90;;;;;;5025238;28;20049;-67
2023/10/24 03:16:26;;;;;;;5.57;3.08;;;10.70;99.90;;;;;;5002636;28;20038;-68
2023/10/24 03:18:52;;;;;;;3.90;1.92;;;10.80;99.90;;;;;;5018638;28;20519;-67
2023/10/24 03:21:19;;;;;;;4.22;2.42;;;10.80;99.90;;;;;;5004818;28;20046;-68
2023/10/24 03:23:44;;;;;;;3.45;2.50;;;10.80;99.90;;;;;;5001982;28;20048;-67
2023/10/24 03:26:10;;;;;;;9.27;1.83;;;10.80;99.90;;;;;;4996878;28;20482;-68
2023/10/24 03:28:36;;;;;;;3.85;2.35;;;10.80;99.90;;;;;;5004694;28;20033;-68
2023/10/24 03:31:03;;;;;;;3.13;1.83;;;10.80;99.90;;;;;;5022285;28;20429;-67
2023/10/24 03:33:30;;;;;;;3.00;1.90;;;10.80;99.90;;;;;;4996181;28;20052;-68
2023/10/24 03:35:56;;;;;;;2.30;1.92;;;10.80;99.90;;;;;;5013978;28;20068;-68
2023/10/24 03:38:23;;;;;;;3.15;1.83;;;10.80;99.90;;;;;;5005313;28;20037;-68
2023/10/24 03:40:49;;;;;;;3.83;1.85;;;10.90;99.90;;;;;;5019019;28;20375;-68
2023/10/24 03:43:15;;;;;;;3.45;1.80;;;10.80;99.90;;;;;;5029917;28;20042;-68
2023/10/24 03:45:41;;;;;;;3.60;2.28;;;10.90;99.90;;;;;;5018636;28;20052;-68
2023/10/24 03:48:06;;;;;;;5.65;2.08;;;10.90;99.90;;;;;;5000862;28;20391;-68
2023/10/24 03:50:37;;;;;;;3.00;2.17;;;10.80;99.90;;;;;;5015961;28;20056;-68
2023/10/24 03:53:04;;;;;;;2.38;1.70;;;10.90;99.90;;;;;;4981620;28;20096;-69
2023/10/24 03:55:30;;;;;;;3.55;2.05;;;10.90;99.90;;;;;;4991788;28;20112;-68
2023/10/24 03:57:56;;;;;;;2.65;1.40;;;10.90;99.90;;;;;;5000176;28;20056;-68
2023/10/24 04:00:22;;;;;;;4.38;2.25;;;10.90;99.90;;;;;;5019992;28;20516;-67
2023/10/24 04:02:52;;;;;;;3.40;2.13;;;10.90;99.90;;;;;;5011887;28;20041;-68
2023/10/24 04:05:18;;;;;;;3.08;1.83;;;10.90;99.90;;;;;;4986161;28;20100;-68
2023/10/24 04:07:43;;;;;;;2.22;1.70;;;10.90;99.90;;;;;;5004791;28;20085;-68
2023/10/24 04:10:11;;;;;;;3.90;1.67;;;11.00;99.90;;;;;;5021364;28;20387;-68
2023/10/24 04:12:37;;;;;;;3.05;1.70;;;11.00;99.90;;;;;;5011924;28;20092;-68
2023/10/24 04:15:03;;;;;;;2.50;1.85;;;11.00;99.90;;;;;;5014572;28;20085;-68
2023/10/24 04:17:29;;;;;;;2.40;1.50;;;11.00;99.90;;;;;;5001233;28;20485;-68
2023/10/24 04:19:55;;;;;;;2.95;1.77;;;11.10;99.90;;;;;;5006862;28;20547;-68
2023/10/24 04:22:21;;;;;;;2.80;1.88;;;11.10;99.90;;;;;;5011426;28;20037;-67
2023/10/24 04:24:46;;;;;;;3.75;1.63;;;11.10;99.90;;;;;;4999725;28;20293;-68
2023/10/24 04:27:12;;;;;;;2.65;1.48;;;11.10;99.90;;;;;;5018111;28;20096;-68
2023/10/24 04:29:38;;;;;;;3.15;1.38;;;11.10;99.90;;;;;;5020572;28;20575;-67
2023/10/24 04:32:04;;;;;;;3.38;1.98;;;11.10;99.90;;;;;;5017286;28;20080;-68
2023/10/24 04:34:30;;;;;;;2.63;1.50;;;11.20;99.90;;;;;;5017561;28;20389;-68
2023/10/24 04:36:55;;;;;;;1.30;1.15;;;11.20;99.90;;;;;;5000844;28;20052;-67
2023/10/24 04:39:21;;;;;;;1.60;1.35;;;11.20;99.90;;;;;;5013633;28;20212;-67
2023/10/24 04:41:47;;;;;;;2.08;1.58;;;11.20;99.90;;;;;;5007975;28;20434;-67
2023/10/24 04:44:13;;;;;;;2.75;1.67;;;11.20;99.90;;;;;;5001429;28;20047;-67
2023/10/24 04:46:40;;;;;;;2.17;1.38;;;11.20;99.90;;;;;;5019066;28;20049;-67
2023/10/24 04:49:06;;;;;;;3.13;1.50;;;11.20;99.90;;;;;;4999198;28;20365;-67
2023/10/24 04:51:32;;;;;;;2.47;1.35;;;11.20;99.90;;;;;;4984915;28;20045;-67
2023/10/24 04:53:57;;;;;;;0.95;0.70;;;11.20;99.90;;;;;;5020848;28;20048;-66
2023/10/24 04:56:24;;;;;;;1.88;1.02;;;11.20;99.90;;;;;;5019203;28;20048;-67
2023/10/24 04:58:50;;;;;;;2.30;1.83;;;11.20;99.90;;;;;;5011753;28;20393;-67
2023/10/24 05:01:16;;;;;;;2.28;1.45;;;11.20;99.90;;;;;;5012294;28;20089;-68
2023/10/24 05:03:42;;;;;;;1.58;1.10;;;11.20;99.90;;;;;;5002275;28;20133;-67
2023/10/24 05:06:08;;;;;;;2.90;1.30;;;11.20;99.90;;;;;;4999034;28;20774;-68
2023/10/24 05:08:34;;;;;;;2.17;1.23;;;11.20;99.90;;;;;;5012695;28;20113;-67
2023/10/24 05:11:01;;;;;;;1.85;1.00;;;11.10;99.90;;;;;;5012576;28;20052;-67
2023/10/24 05:13:27;;;;;;;1.83;0.80;;;11.10;99.90;;;;;;5019173;28;20099;-67
2023/10/24 05:15:52;;;;;;;2.13;1.10;;;11.20;99.90;;;;;;5022174;28;20049;-67
2023/10/24 05:18:18;;;;;;;1.60;0.90;;;11.10;99.90;;;;;;5005300;28;20049;-67
2023/10/24 05:20:44;;;;;;;1.63;0.73;;;11.10;99.90;;;;;;5023532;28;20038;-67
2023/10/24 05:23:09;;;;;;;1.13;0.75;;;11.10;99.90;;;;;;5019460;28;20288;-67
2023/10/24 05:25:36;;;;;;;1.90;0.93;;;11.10;99.90;;;;;;5005329;28;20386;-68
2023/10/24 05:28:02;;;;;;;1.42;1.10;;;11.10;99.90;;;;;;5021380;28;20049;-67
2023/10/24 05:30:28;;;;;;;3.22;1.27;;;11.10;99.90;;;;;;5011988;28;20085;-67
2023/10/24 05:32:54;;;;;;;1.92;0.90;;;11.00;99.90;;;;;;4999062;28;20461;-67
2023/10/24 05:35:20;;;;;;;1.85;1.10;;;11.10;99.90;;;;;;5020690;28;20060;-68
2023/10/24 05:37:46;;;;;;;1.40;1.20;;;11.10;99.90;;;;;;5010948;28;20045;-67
2023/10/24 05:40:11;;;;;;;2.25;1.00;;;11.10;99.90;;;;;;5015378;28;20486;-67
2023/10/24 05:42:37;;;;;;;1.27;0.77;;;11.00;99.90;;;;;;5017888;28;20094;-67
2023/10/24 05:45:03;;;;;;;2.22;1.25;;;11.00;99.90;;;;;;5003744;28;20045;-67
2023/10/24 05:47:29;;;;;;;1.52;0.90;;;11.00;99.90;;;;;;4985356;28;20411;-67
2023/10/24 05:49:55;;;;;;;1.15;0.75;;;11.00;99.90;;;;;;4981847;28;20157;-67
2023/10/24 05:52:20;;;;;;;1.23;1.08;;;11.00;99.90;;;;;;5019097;28;20049;-67
2023/10/24 05:54:46;;;;;;;2.42;0.82;;;11.10;99.90;;;;;;5001533;28;20045;-67
2023/10/24 05:57:12;;;;;;;2.58;1.23;;;11.00;99.90;;;;;;5006363;28;20373;-67
2023/10/24 05:59:38;;;;;;;1.40;1.17;;;11.00;99.90;;;;;;4999334;28;20037;-67
2023/10/24 06:02:03;;;;;;;1.67;0.68;;;11.00;99.90;;;;;;5017465;28;20062;-67
2023/10/24 06:04:34;;;;;;;1.08;0.95;;;11.00;99.90;;;;;;5013174;28;20442;-67
2023/10/24 06:06:59;;;;;;;1.17;1.00;;;11.00;99.90;;;;;;5012559;28;20053;-67
2023/10/24 06:09:25;;;;;;;1.65;1.10;;;11.00;99.90;;;;;;5014649;28;20528;-67
2023/10/24 06:11:51;;;;;;;1.17;0.65;;;11.00;99.90;;;;;;5018773;28;20034;-67
2023/10/24 06:14:17;;;;;;;2.05;1.08;;;11.00;99.90;;;;;;5012557;28;20049;-67
2023/10/24 06:16:43;;;;;;;2.17;1.50;;;11.00;99.90;;;;;;5019053;28;20053;-67
2023/10/24 06:19:09;;;;;;;1.50;1.02;;;11.00;99.90;;;;;;5015775;28;20049;-68
2023/10/24 06:21:34;;;;;;;2.03;1.27;;;11.00;99.90;;;;;;5005695;28;20069;-67
2023/10/24 06:24:00;;;;;;;2.58;0.95;;;11.00;99.90;;;;;;5016605;28;20556;-67
2023/10/24 06:26:26;;;;;;;1.55;0.80;;;11.00;99.90;;;;;;4988551;28;20056;-67
2023/10/24 06:28:52;;;;;;;0.82;0.52;;;11.00;99.90;;;;;;5001092;28;20474;-67
2023/10/24 06:31:17;;;;;;;0.95;0.63;;;11.00;99.90;;;;;;5019583;28;20051;-67
2023/10/24 06:33:43;;;;;;;1.65;0.93;;;11.00;99.90;;;;;;5024231;28;20144;-66
2023/10/24 06:36:09;;;;;;;1.48;0.90;;;11.00;99.90;;;;;;5001026;28;20230;-66
2023/10/24 06:38:35;;;;;;;1.48;1.08;;;11.00;99.90;;;;;;5018519;28;20438;-67
2023/10/24 06:41:01;;;;;;;1.20;0.80;;;11.00;99.90;;;;;;5021443;28;20497;-67
2023/10/24 06:43:27;;;;;;;1.60;0.82;;;11.00;99.90;;;;;;5016057;28;20044;-67
2023/10/24 06:45:53;;;;;;;2.25;1.00;;;11.00;99.90;;;;;;5021801;28;20046;-67
2023/10/24 06:48:22;;;;;;;1.65;0.90;;;11.00;99.90;;;;;;5021581;28;20107;-67
2023/10/24 06:50:48;;;;;;;1.40;0.82;;;10.90;99.90;;;;;;5019142;28;20042;-67
2023/10/24 06:53:13;;;;;;;10.00;1.70;;;11.00;99.90;;;;;;4997564;28;20061;-67
2023/10/24 06:55:40;;;;;;;1.33;0.73;;;10.90;99.90;;;;;;5013888;28;20048;-67
2023/10/24 06:58:05;;;;;;;1.27;0.85;;;10.90;99.90;;;;;;5021718;28;20091;-67
2023/10/24 07:00:31;;;;;;;1.70;0.95;;;10.90;99.90;;;;;;5015722;28;20042;-67
2023/10/24 07:02:58;;;;;;;2.60;1.50;;;11.00;99.90;;;;;;5013957;28;20078;-67
2023/10/24 07:05:24;;;;;;;1.75;0.80;;;10.90;99.90;;;;;;5013521;28;20058;-67
2023/10/24 07:07:50;;;;;;;2.13;0.70;;;10.90;99.90;;;;;;5022677;28;20139;-67
2023/10/24 07:10:16;;;;;;;3.50;1.00;;;11.00;99.90;;;;;;5017947;28;20030;-67
2023/10/24 07:12:41;;;;;;;2.70;1.05;;;11.00;99.90;;;;;;5013251;28;20546;-67
2023/10/24 07:15:08;;;;;;;1.70;0.77;;;11.00;99.90;;;;;;5014454;28;20494;-67
2023/10/24 07:17:35;;;;;;;2.05;1.00;;;11.00;99.90;;;;;;5019893;28;20033;-67
2023/10/24 07:20:01;;;;;;;1.25;0.70;;;11.00;99.90;;;;;;5023038;28;20077;-67
2023/10/24 07:22:27;;;;;;;2.05;1.08;;;11.00;99.90;;;;;;5018107;28;20533;-67
2023/10/24 07:24:53;;;;;;;4.00;1.08;;;11.00;99.90;;;;;;5022805;28;20510;-67
2023/10/24 07:27:19;;;;;;;2.65;1.08;;;11.00;99.90;;;;;;5000148;28;20033;-67
2023/10/24 07:29:45;;;;;;;1.17;0.80;;;11.00;99.90;;;;;;5025261;28;20037;-67
2023/10/24 07:32:11;;;;;;;1.50;0.80;;;10.90;99.90;;;;;;4985398;28;20386;-67
2023/10/24 07:34:39;;;;;;;1.95;0.73;;;11.00;99.90;;;;;;5015932;28;20073;-68
2023/10/24 07:37:05;;;;;;;1.77;0.77;;;11.00;99.90;;;;;;5020492;28;20112;-67
2023/10/24 07:39:31;;;;;;;1.00;0.75;;;11.00;99.90;;;;;;4999699;28;20141;-67
2023/10/24 07:41:56;;;;;;;7.22;1.38;;;11.00;99.90;;;;;;5024420;28;20062;-67
2023/10/24 07:44:25;;;;;;;2.03;1.10;;;11.00;99.90;;;;;;5020776;28;20454;-67
2023/10/24 07:46:52;;;;;;;0.80;0.52;;;11.00;99.90;;;;;;5019520;28;20069;-67
2023/10/24 07:49:17;;;;;;;1.15;0.82;;;11.00;99.90;;;;;;5023603;28;20117;-67
2023/10/24 07:51:43;;;;;;;2.25;1.17;;;11.00;99.90;;;;;;5002825;28;20468;-67
2023/10/24 07:54:10;;;;;;;1.63;0.80;;;11.00;99.90;;;;;;5019156;28;20049;-67
2023/10/24 07:56:40;;;;;;;1.73;1.02;;;11.00;99.90;;;;;;5019542;28;20073;-67
2023/10/24 07:59:07;;;;;;;2.20;1.00;;;11.00;99.90;;;;;;5024861;28;20050;-67
2023/10/24 08:01:33;;;;;;;3.22;1.45;;;11.00;99.90;;;;;;5011481;28;20042;-67
2023/10/24 08:04:03;;;;;;;1.42;0.80;;;11.00;99.90;;;;;;4989516;28;20391;-67
2023/10/24 08:06:28;;;;;;;2.03;1.25;;;11.00;99.90;;;;;;5020376;28;20053;-67
2023/10/24 08:08:54;;;;;;;1.88;0.90;;;11.00;99.90;;;;;;5016848;28;20041;-67
2023/10/24 08:11:20;;;;;;;2.45;1.33;;;11.00;99.90;;;;;;5012426;28;20045;-67
2023/10/24 08:13:46;;;;;;;2.42;1.38;;;11.10;99.90;;;;;;5017292;28;20041;-67
2023/10/24 08:16:12;;;;;;;1.75;1.02;;;11.00;99.90;;;;;;5018954;28;20054;-67
2023/10/24 08:18:38;;;;;;;1.27;0.85;;;11.00;99.90;;;;;;4996859;28;20116;-67
2023/10/24 08:21:04;;;;;;;2.88;1.25;;;11.10;99.90;;;;;;5011443;28;20038;-67
2023/10/24 08:23:30;;;;;;;1.95;1.00;;;11.10;99.90;;;;;;5001709;28;20100;-67
2023/10/24 08:25:59;;;;;;;1.50;1.08;;;11.10;99.90;;;;;;5019081;28;20037;-67
2023/10/24 08:28:24;;;;;;;1.50;0.90;;;11.10;99.90;;;;;;4995208;28;20045;-67
2023/10/24 08:30:50;;;;;;;5.68;1.38;;;11.10;99.90;;;;;;4998601;28;20037;-67
2023/10/24 08:33:18;;;;;;;4.35;1.35;;;11.10;99.90;;;;;;5017799;28;20041;-67
2023/10/24 08:35:47;;;;;;;4.28;1.80;;;11.10;99.90;;;;;;4986664;28;20113;-67
2023/10/24 08:38:13;;;;;;;1.88;1.17;;;11.10;99.90;;;;;;5025620;28;20041;-67
2023/10/24 08:40:40;;;;;;;5.53;1.20;;;11.10;99.90;;;;;;4998693;28;20080;-67
2023/10/24 08:43:08;;;;;;;3.67;1.52;;;11.10;99.90;;;;;;5017769;28;20040;-67
2023/10/24 08:45:36;;;;;;;2.47;1.13;;;11.10;99.90;;;;;;5013419;28;20554;-67
2023/10/24 08:48:05;;;;;;;1.48;1.02;;;11.10;99.90;;;;;;5011882;28;20049;-67
2023/10/24 08:50:31;;;;;;;2.70;1.42;;;11.20;99.90;;;;;;4991575;28;20097;-67
2023/10/24 08:52:57;;;;;;;2.30;1.30;;;11.20;99.90;;;;;;5020622;28;20041;-67
2023/10/24 08:55:24;;;;;;;1.70;0.95;;;11.20;99.90;;;;;;5018262;28;20065;-67
2023/10/24 08:57:52;;;;;;;3.30;1.52;;;11.20;99.90;;;;;;4994916;28;20050;-67
2023/10/24 09:00:18;;;;;;;2.08;1.38;;;11.20;99.90;;;;;;5015718;28;20057;-67
2023/10/24 09:02:45;;;;;;;2.35;1.40;;;11.20;99.90;;;;;;5020429;28;20041;-67
2023/10/24 09:05:12;;;;;;;2.50;1.08;;;11.20;99.90;;;;;;5014326;28;20129;-67
2023/10/24 09:07:39;;;;;;;2.95;1.35;;;11.10;99.90;;;;;;4978424;28;20066;-67
2023/10/24 09:10:05;;;;;;;1.67;1.00;;;11.10;99.90;;;;;;5016112;28;20063;-67
2023/10/24 09:12:32;;;;;;;2.42;1.35;;;11.10;99.90;;;;;;5001294;28;20120;-67
2023/10/24 09:14:59;;;;;;;4.72;2.22;;;11.10;99.90;;;;;;5015523;28;20046;-68
2023/10/24 09:17:25;;;;;;;2.35;1.65;;;11.10;99.90;;;;;;5002550;28;20033;-67
2023/10/24 09:19:58;;;;;;;3.50;1.77;;;11.10;99.90;;;;;;5021258;28;20092;-67
2023/10/24 09:22:28;;;;;;;3.38;1.98;;;11.10;99.90;;;;;;5020331;28;20367;-67
2023/10/24 09:24:56;;;;;;;2.17;1.50;;;11.10;99.90;;;;;;5003027;28;20041;-67
2023/10/24 09:27:27;;;;;;;1.67;1.20;;;11.00;99.90;;;;;;4999746;28;20111;-67
2023/10/24 09:29:53;;;;;;;3.33;1.60;;;11.10;99.90;;;;;;5021199;28;20099;-67
2023/10/24 09:32:20;;;;;;;3.28;0.80;;;11.10;99.90;;;;;;5020898;28;20053;-67
2023/10/24 09:34:47;;;;;;;2.10;1.20;;;11.10;99.90;;;;;;5001917;28;20050;-67
2023/10/24 09:37:13;;;;;;;2.63;1.15;;;11.10;99.90;;;;;;5022386;28;20501;-67
2023/10/24 09:39:52;;;;;;;3.67;1.50;;;11.10;99.90;;;;;;5017039;28;20541;-67
2023/10/24 09:42:24;;;;;;;2.40;1.23;;;11.10;99.90;;;;;;5019419;28;20449;-66
2023/10/24 09:44:55;;;;;;;3.03;1.55;;;11.10;99.90;;;;;;5027102;28;20033;-68
2023/10/24 09:47:22;;;;;;;2.08;1.50;;;11.10;99.90;;;;;;4999944;28;20038;-66
2023/10/24 09:49:51;;;;;;;1.25;1.00;;;11.20;99.90;;;;;;5018376;28;20045;-67
2023/10/24 09:52:19;;;;;;;3.55;1.38;;;11.20;99.90;;;;;;5022407;28;20045;-67
2023/10/24 09:54:49;;;;;;;2.13;1.38;;;11.10;99.90;;;;;;5011600;28;20105;-67
2023/10/24 09:57:19;;;;;;;3.67;1.40;;;11.10;99.90;;;;;;5023829;28;20536;-67
2023/10/24 09:59:56;;;;;;;1.17;1.08;;;11.10;99.90;;;;;;5001501;28;20054;-67
2023/10/24 10:02:26;;;;;;;2.90;1.40;;;11.20;99.90;;;;;;5025552;28;20088;-67
2023/10/24 10:04:52;;;;;;;1.70;0.77;;;11.10;99.90;;;;;;5001660;28;20052;-67
2023/10/24 10:07:20;;;;;;;2.75;1.38;;;11.20;99.90;;;;;;5017874;28;20129;-67
2023/10/24 10:09:47;;;;;;;2.05;1.00;;;11.20;99.90;;;;;;5022614;28;20469;-67
2023/10/24 10:12:17;;;;;;;3.00;1.38;;;11.20;99.90;;;;;;5023164;28;20095;-67
2023/10/24 10:14:42;;;;;;;1.38;0.68;;;11.20;99.90;;;;;;5017942;28;20131;-67
2023/10/24 10:17:26;;;;;;;1.90;1.27;;;11.30;99.90;;;;;;5025514;28;20370;-67
2023/10/24 10:20:02;;;;;;;3.03;1.52;;;11.30;99.90;;;;;;5002769;28;20362;-67
2023/10/24 10:22:28;;;;;;;2.55;1.30;;;11.40;99.90;;;;;;5014663;28;20048;-67
2023/10/24 10:25:03;;;;;;;2.45;1.52;;;11.50;99.90;;;;;;5014175;28;20056;-66
2023/10/24 10:27:29;;;;;;;3.90;1.77;;;11.50;99.90;;;;;;5007320;28;20041;-66
2023/10/24 10:30:07;;;;;;;1.98;1.02;;;11.60;99.90;;;;;;5019730;28;20054;-66
2023/10/24 10:32:33;;;;;;;2.40;1.52;;;11.60;99.90;;;;;;5027153;28;20474;-67
2023/10/24 10:34:59;;;;;;;2.35;1.48;;;11.70;99.90;;;;;;5013018;28;20070;-67
2023/10/24 10:37:30;;;;;;;2.53;1.33;;;11.70;99.90;;;;;;5019915;28;20048;-67
2023/10/24 10:40:17;;;;;;;2.80;1.25;;;11.70;99.90;;;;;;5001142;28;20435;-67
2023/10/24 10:42:47;;;;;;;2.50;1.33;;;11.80;99.90;;;;;;5002092;28;20119;-66
2023/10/24 10:45:26;;;;;;;2.88;1.27;;;11.90;99.90;;;;;;5017323;28;20038;-67
2023/10/24 10:47:55;;;;;;;3.17;1.85;;;12.00;99.90;;;;;;5018067;28;20048;-67
2023/10/24 10:50:27;;;;;;;1.75;0.68;;;12.00;99.90;;;;;;5001951;28;20050;-68
2023/10/24 10:53:36;;;;;;;2.58;1.42;;;12.10;99.90;;;;;;5030028;28;20043;-67
2023/10/24 10:56:24;;;;;;;2.53;1.63;;;12.10;99.90;;;;;;5004363;28;20050;-67
2023/10/24 10:59:02;;;;;;;2.85;1.55;;;12.20;99.90;;;;;;5018475;28;20052;-66
2023/10/24 11:01:50;;;;;;;4.15;1.77;;;12.20;99.90;;;;;;4998131;28;20589;-66
2023/10/24 11:04:16;;;;;;;3.20;1.27;;;12.20;99.90;;;;;;5016582;28;20045;-67
2023/10/24 11:06:52;;;;;;;2.22;1.88;;;12.20;99.90;;;;;;5011241;28;20167;-67
2023/10/24 11:09:20;;;;;;;3.03;1.80;;;12.20;99.90;;;;;;5012099;28;20048;-66
2023/10/24 11:11:47;;;;;;;2.47;1.63;;;12.20;99.90;;;;;;5017313;28;20119;-66
2023/10/24 11:14:20;;;;;;;2.70;1.17;;;12.20;99.90;;;;;;5001104;28;20064;-66
2023/10/24 11:16:50;;;;;;;2.53;1.83;;;12.20;99.90;;;;;;5020143;28;20125;-66
2023/10/24 11:19:20;;;;;;;2.97;1.75;;;12.20;99.90;;;;;;5017583;28;20462;-67
2023/10/24 11:21:48;;;;;;;2.35;1.63;;;12.20;99.90;;;;;;4983929;28;20084;-67
2023/10/24 11:24:22;;;;;;;2.83;1.67;;;12.30;99.90;;;;;;5015012;28;20474;-66
2023/10/24 11:26:54;;;;;;;2.45;1.48;;;12.40;99.90;;;;;;4991215;28;20054;-67
2023/10/24 11:29:19;;;;;;;5.07;2.00;;;12.40;99.90;;;;;;4998428;28;20474;-67
2023/10/24 11:31:45;;;;;;;2.72;1.50;;;12.50;99.90;;;;;;5019448;28;20084;-67
2023/10/24 11:34:15;;;;;;;3.35;1.63;;;12.50;99.90;;;;;;5016298;28;20045;-67
2023/10/24 11:36:45;;;;;;;3.65;1.60;;;12.50;99.90;;;;;;5021518;28;20111;-67
2023/10/24 11:39:14;;;;;;;2.00;1.38;;;12.50;99.90;;;;;;5020640;28;20038;-67
2023/10/24 11:41:43;;;;;;;2.28;1.52;;;12.50;99.90;;;;;;5024420;28;20506;-66
2023/10/24 11:44:15;;;;;;;3.95;2.50;;;12.50;99.90;;;;;;5002829;28;20030;-67
2023/10/24 11:46:42;;;;;;;1.67;1.08;;;12.50;99.90;;;;;;5017828;28;20122;-67
2023/10/24 11:49:08;;;;;;;2.63;1.25;;;12.50;99.90;;;;;;5030109;28;20430;-66
2023/10/24 11:51:34;;;;;;;2.25;1.58;;;12.50;99.90;;;;;;5002013;28;20128;-67
2023/10/24 11:54:01;;;;;;;3.25;1.38;;;12.60;99.90;;;;;;5018560;28;20053;-67
2023/10/24 11:56:27;;;;;;;2.25;1.30;;;12.70;99.90;;;;;;5023083;28;20541;-67
2023/10/24 11:58:53;;;;;;;1.65;1.00;;;12.70;99.90;;;;;;5011553;28;20053;-67
2023/10/24 12:01:18;;;;;;;2.33;1.45;;;12.90;99.90;;;;;;5019421;28;20129;-67
2023/10/24 12:03:47;;;;;;;2.38;1.55;;;13.10;99.90;;;;;;5019887;28;20095;-66
2023/10/24 12:06:15;;;;;;;1.65;1.17;;;13.10;99.90;;;;;;5021950;28;20053;-67
2023/10/24 12:08:43;;;;;;;1.63;1.23;;;13.20;99.90;;;;;;5017810;28;20168;-67
2023/10/24 12:11:10;;;;;;;1.10;0.85;;;13.20;99.90;;;;;;5018560;28;20105;-66
2023/10/24 12:13:36;;;;;;;1.85;1.27;;;13.20;99.90;;;;;;5021186;28;20080;-67
2023/10/24 12:16:02;;;;;;;1.85;1.17;;;13.10;99.90;;;;;;5016752;28;20049;-67
2023/10/24 12:18:29;;;;;;;2.08;1.42;;;13.10;99.90;;;;;;5011936;28;20651;-66
2023/10/24 12:20:55;;;;;;;1.08;0.82;;;13.00;99.90;;;;;;4997728;28;20048;-67
2023/10/24 12:23:23;;;;;;;2.72;1.55;;;12.90;99.90;;;;;;5021385;28;20501;-66
2023/10/24 12:25:50;;;;;;;1.95;1.35;;;12.80;99.90;;;;;;4999152;28;20473;-66
2023/10/24 12:28:16;;;;;;;1.45;0.88;;;12.70;99.90;;;;;;5011647;28;20030;-67
2023/10/24 12:30:41;;;;;;;2.38;1.17;;;12.70;99.90;;;;;;5016346;28;20407;-67
2023/10/24 12:33:07;;;;;;;2.35;1.17;;;12.60;99.90;;;;;;5006140;28;20497;-66
2023/10/24 12:35:33;;;;;;;2.15;1.17;;;12.60;99.90;;;;;;5013709;28;20115;-67
2023/10/24 12:37:59;;;;;;;1.63;1.13;;;12.50;99.90;;;;;;4995493;28;20037;-67
2023/10/24 12:40:25;;;;;;;1.38;1.05;;;12.50;99.90;;;;;;4999553;28;20037;-67
2023/10/24 12:42:52;;;;;;;1.52;1.15;;;12.50;99.90;;;;;;5016021;28;20046;-66
2023/10/24 12:45:19;;;;;;;1.92;1.10;;;12.50;99.90;;;;;;4984109;28;20038;-66
2023/10/24 12:47:45;;;;;;;2.42;1.50;;;12.50;99.90;;;;;;4986162;28;20339;-66